createdAt,value
2023-08-03T12:02:14.432Z,33.94
2023-08-03T12:05:10.739Z,34.05
2023-08-03T12:08:06.415Z,34.12
2023-08-03T12:11:04.986Z,33.89
2023-08-03T12:13:51.360Z,33.89
2023-08-03T12:16:38.657Z,33.95
2023-08-03T12:22:19.528Z,34.18
2023-08-03T12:25:06.669Z,34.11
2023-08-03T12:27:53.307Z,34.04
2023-08-03T12:30:40.723Z,34.08
2023-08-03T12:33:27.705Z,34.15
2023-08-03T12:36:16.387Z,33.99
2023-08-03T12:39:03.032Z,34.12
2023-08-03T12:41:49.558Z,34.00
2023-08-03T12:44:36.322Z,34.13
2023-08-03T12:47:22.769Z,34.37
2023-08-03T12:50:10.354Z,34.30
2023-08-03T12:52:58.354Z,34.25
2023-08-03T12:55:45.033Z,34.25
2023-08-03T12:58:31.444Z,34.24
2023-08-03T13:01:17.958Z,34.29
2023-08-03T13:04:04.428Z,34.39
2023-08-03T13:06:51.271Z,34.39
2023-08-03T13:09:39.767Z,34.37
2023-08-03T13:12:28.096Z,34.39
2023-08-03T13:15:16.249Z,34.49
2023-08-03T13:18:03.079Z,34.33
2023-08-03T13:20:50.322Z,34.54
2023-08-03T13:23:36.737Z,34.37
2023-08-03T13:26:26.005Z,34.66
2023-08-03T13:29:16.082Z,34.38
2023-08-03T13:32:05.172Z,34.37
2023-08-03T13:34:51.843Z,34.48
2023-08-03T13:37:38.218Z,34.48
2023-08-03T13:40:24.616Z,34.56
2023-08-03T13:43:12.330Z,34.56
2023-08-03T13:45:59.094Z,34.61
2023-08-03T13:48:45.880Z,34.47
2023-08-03T13:51:32.460Z,34.46
2023-08-03T13:54:18.893Z,34.41
2023-08-03T13:57:09.167Z,34.47
2023-08-03T14:02:47.129Z,34.39
2023-08-03T14:08:23.595Z,34.51
2023-08-03T14:14:02.344Z,34.62
2023-08-03T14:16:54.793Z,34.48
2023-08-03T14:19:42.389Z,34.56
2023-08-03T14:22:29.880Z,34.64
2023-08-03T14:31:00.521Z,34.61
2023-08-03T14:33:48.716Z,34.60
2023-08-03T14:36:35.289Z,34.62
2023-08-03T14:39:21.710Z,34.62
2023-08-03T14:42:08.504Z,34.69
2023-08-03T14:44:55.259Z,34.55
2023-08-03T14:50:37.249Z,34.68
2023-08-03T14:53:23.862Z,34.54
2023-08-03T14:59:00.958Z,34.56
2023-08-03T15:01:47.576Z,34.63
2023-08-03T15:04:37.975Z,34.57
2023-08-03T15:07:26.360Z,34.55
2023-08-03T15:10:13.306Z,34.63
2023-08-03T15:13:00.452Z,34.64
2023-08-03T15:15:51.829Z,34.77
2023-08-03T15:18:38.819Z,34.64
2023-08-03T15:21:28.035Z,34.51
2023-08-03T15:24:18.659Z,34.47
2023-08-03T15:27:06.726Z,34.39
2023-08-03T15:29:56.391Z,34.23
2023-08-03T15:32:43.648Z,34.32
2023-08-03T15:35:31.352Z,34.49
2023-08-03T15:38:20.841Z,34.36
2023-08-03T15:41:10.379Z,34.30
2023-08-03T15:44:02.170Z,34.37
2023-08-03T15:47:13.647Z,34.33
2023-08-03T15:49:57.564Z,34.37
2023-08-03T15:53:12.723Z,34.29
2023-08-03T15:58:46.934Z,34.23
2023-08-03T16:01:33.609Z,34.18
2023-08-03T16:04:20.220Z,34.05
2023-08-03T16:07:07.055Z,34.09
2023-08-03T16:09:53.769Z,33.67
2023-08-03T16:12:40.254Z,33.96
2023-08-03T16:15:28.252Z,33.90
2023-08-03T16:18:15.534Z,33.87
2023-08-03T16:21:05.902Z,33.91
2023-08-03T16:23:52.371Z,33.91
2023-08-03T16:26:38.750Z,33.71
2023-08-03T16:29:25.792Z,33.71
2023-08-03T16:32:16.581Z,33.71
2023-08-03T16:35:04.892Z,33.49
2023-08-03T16:37:51.820Z,33.57
2023-08-03T16:40:38.133Z,33.63
2023-08-03T16:43:24.900Z,33.57
2023-08-03T16:46:11.905Z,33.45
2023-08-03T16:48:59.882Z,33.50
2023-08-03T16:51:46.716Z,33.41
2023-08-03T16:54:33.133Z,33.31
2023-08-03T16:57:19.591Z,33.36
2023-08-03T17:00:07.928Z,33.27
2023-08-03T17:02:54.567Z,33.14
2023-08-03T17:05:42.386Z,33.14
2023-08-03T17:08:29.234Z,32.98
2023-08-03T17:11:15.732Z,33.01
2023-08-03T17:14:02.199Z,32.88
2023-08-03T17:16:49.042Z,32.99
2023-08-03T17:19:35.812Z,32.71
2023-08-03T17:22:23.551Z,32.66
2023-08-03T17:25:11.004Z,32.69
2023-08-03T17:27:57.680Z,32.69
2023-08-03T17:30:44.117Z,32.42
2023-08-03T17:33:30.667Z,32.59
2023-08-03T17:36:17.138Z,32.49
2023-08-03T17:39:06.009Z,32.49
2023-08-03T17:41:53.449Z,32.58
2023-08-03T17:44:40.234Z,32.31
2023-08-03T17:47:27.001Z,32.18
2023-08-03T17:50:13.738Z,32.19
2023-08-03T17:53:00.062Z,32.15
2023-08-03T17:55:47.883Z,32.10
2023-08-03T17:58:34.273Z,32.24
2023-08-03T18:01:24.128Z,32.02
2023-08-03T18:04:11.800Z,32.15
2023-08-03T18:06:58.712Z,32.15
2023-08-03T18:09:45.668Z,32.19
2023-08-03T18:12:33.616Z,32.10
2023-08-03T18:15:19.985Z,31.99
2023-08-03T18:18:06.600Z,31.87
2023-08-03T18:20:53.110Z,31.82
2023-08-03T18:23:39.995Z,31.76
2023-08-03T18:26:27.564Z,31.76
2023-08-03T18:29:15.688Z,31.63
2023-08-03T18:32:02.456Z,31.81
2023-08-03T18:34:50.329Z,31.68
2023-08-03T18:37:36.489Z,31.48
2023-08-03T18:40:23.183Z,31.37
2023-08-03T18:43:09.923Z,31.48
2023-08-03T18:46:02.314Z,31.24
2023-08-03T18:48:48.928Z,31.12
2023-08-03T18:51:35.890Z,31.07
2023-08-03T18:54:22.664Z,30.99
2023-08-03T18:57:09.311Z,31.00
2023-08-03T18:59:55.959Z,31.23
2023-08-03T19:02:43.835Z,31.05
2023-08-03T19:05:30.470Z,30.82
2023-08-03T19:08:16.805Z,30.64
2023-08-03T19:11:03.536Z,30.64
2023-08-03T19:13:50.056Z,30.65
2023-08-03T19:16:36.624Z,30.52
2023-08-03T19:19:25.985Z,30.59
2023-08-03T19:22:12.809Z,30.26
2023-08-03T19:24:59.209Z,30.17
2023-08-03T19:27:48.511Z,30.18
2023-08-03T19:30:36.008Z,30.07
2023-08-03T19:33:22.606Z,30.15
2023-08-03T19:36:10.692Z,30.29
2023-08-03T19:38:57.428Z,30.25
2023-08-03T19:41:43.895Z,30.13
2023-08-03T19:44:30.352Z,30.39
2023-08-03T19:47:16.879Z,30.14
2023-08-03T19:55:45.390Z,29.50
2023-08-03T20:07:13.391Z,29.62
2023-08-03T20:10:02.278Z,29.65
2023-08-03T20:15:56.052Z,30.03
2023-08-03T20:19:05.626Z,30.03
2023-08-03T20:21:48.961Z,29.78
2023-08-03T20:24:35.409Z,29.54
2023-08-03T20:27:28.437Z,29.98
2023-08-03T20:30:15.637Z,30.39
2023-08-03T20:33:04.978Z,30.55
2023-08-03T20:39:06.915Z,29.65
2023-08-03T20:41:53.906Z,29.67
2023-08-03T20:53:11.014Z,29.25
2023-08-03T20:55:57.736Z,28.99
2023-08-03T20:58:46.150Z,28.66
2023-08-03T21:01:34.703Z,28.78
2023-08-03T21:04:26.656Z,28.56
2023-08-03T21:07:13.824Z,29.01
2023-08-03T21:12:50.029Z,29.63
2023-08-03T21:15:37.114Z,29.11
2023-08-03T21:21:15.788Z,28.86
2023-08-03T21:24:03.865Z,28.45
2023-08-03T21:26:50.780Z,28.41
2023-08-03T21:29:37.310Z,28.60
2023-08-03T21:32:23.760Z,28.61
2023-08-03T21:35:12.173Z,28.61
2023-08-03T21:37:59.012Z,28.47
2023-08-03T21:40:45.834Z,28.39
2023-08-03T21:43:32.185Z,28.51
2023-08-03T21:46:19.089Z,28.28
2023-08-03T21:49:05.734Z,28.57
2023-08-03T21:51:56.441Z,29.04
2023-08-03T21:54:43.217Z,28.90
2023-08-03T21:57:30.172Z,28.64
2023-08-03T22:00:17.258Z,28.79
2023-08-03T22:03:04.125Z,28.11
2023-08-03T22:05:51.353Z,27.62
2023-08-03T22:08:39.149Z,27.83
2023-08-03T22:11:25.626Z,28.02
2023-08-03T22:14:12.072Z,28.38
2023-08-03T22:16:58.984Z,28.58
2023-08-03T22:19:45.736Z,28.47
2023-08-03T22:22:32.559Z,27.94
2023-08-03T22:25:20.841Z,27.57
2023-08-03T22:28:08.321Z,27.71
2023-08-03T22:30:54.988Z,28.24
2023-08-03T22:33:41.998Z,28.93
2023-08-03T22:36:28.670Z,28.23
2023-08-03T22:39:15.408Z,27.44
2023-08-03T22:42:03.543Z,27.19
2023-08-03T22:44:50.278Z,27.15
2023-08-03T22:48:01.987Z,27.55
2023-08-03T22:50:43.886Z,27.31
2023-08-03T22:53:30.755Z,27.85
2023-08-03T22:56:18.155Z,27.53
2023-08-03T22:59:06.154Z,27.29
2023-08-03T23:01:52.711Z,27.21
2023-08-03T23:04:39.360Z,27.53
2023-08-03T23:07:25.967Z,27.44
2023-08-03T23:10:13.044Z,27.41
2023-08-03T23:13:00.039Z,27.85
2023-08-03T23:15:47.808Z,27.90
2023-08-03T23:18:35.820Z,27.69
2023-08-03T23:21:22.289Z,28.12
2023-08-03T23:24:08.788Z,28.05
2023-08-03T23:26:55.396Z,27.83
2023-08-03T23:29:41.804Z,28.43
2023-08-03T23:32:29.686Z,28.14
2023-08-03T23:35:16.478Z,27.40
2023-08-03T23:38:03.214Z,27.14
2023-08-03T23:40:49.846Z,26.98
2023-08-03T23:43:36.079Z,27.62
2023-08-03T23:46:22.679Z,27.16
2023-08-03T23:49:10.881Z,26.77
2023-08-03T23:51:57.537Z,27.47
2023-08-03T23:54:43.981Z,27.87
2023-08-03T23:57:30.482Z,28.02
